CDT,Max TemperatureF,Mean TemperatureF,Min TemperatureF,Max Dew PointF,MeanDew PointF,Min DewpointF,Max Humidity, Mean Humidity, Min Humidity, Max Sea Level PressureIn, Mean Sea Level PressureIn, Min Sea Level PressureIn, Max VisibilityMiles, Mean VisibilityMiles, Min VisibilityMiles, Max Wind SpeedMPH, Mean Wind SpeedMPH, Max Gust SpeedMPH,PrecipitationIn, CloudCover, Events, WindDirDegrees
2012-9-1,87,79,71,70,66,63,78,64,51,30.03,29.96,29.85,10,10,4,17,10,26,1.66,4,Thunderstorm,171
2012-9-2,80,76,71,70,66,64,78,73,65,29.88,29.79,29.76,10,9,2,15,11,26,1.29,8,,209
2012-9-3,82,78,73,72,67,64,78,73,65,29.86,29.81,29.75,10,8,2,9,5,,0.31,7,,279
2012-9-4,89,79,69,70,66,63,78,67,46,29.92,29.86,29.84,10,6,0,7,2,,0.00,4,,19
2012-9-5,91,80,66,70,64,59,78,68,49,29.89,29.85,29.79,10,9,5,20,3,31,0.00,1,Thunderstorm,143
2012-9-6,89,78,66,70,64,57,83,67,49,29.96,29.92,29.88,10,8,0,16,2,25,0.00,3,,115
2012-9-7,93,78,64,70,63,57,78,62,43,29.93,29.83,29.68,10,10,3,28,6,44,0.84,2,Thunderstorm,203
2012-9-8,75,66,57,63,51,46,78,60,41,29.99,29.90,29.75,10,10,5,15,8,23,0.44,5,,313
2012-9-9,77,65,53,52,49,45,77,59,39,30.11,30.01,29.94,10,10,9,13,5,18,0.00,0,,274
2012-9-10,78,66,55,54,50,46,72,57,36,30.20,30.15,30.11,10,10,10,9,4,,0.00,0,,39
2012-9-11,84,68,53,54,50,45,77,56,37,30.23,30.17,30.13,10,10,4,9,2,16,0.00,0,,152
2012-9-12,86,70,57,59,53,48,72,56,35,30.25,30.20,30.17,10,10,10,15,4,20,0.00,3,,176
2012-9-13,86,73,60,59,55,50,73,57,37,30.27,30.22,30.17,10,10,10,12,4,17,0.00,3,,174
2012-9-14,71,65,59,57,54,50,77,68,57,30.28,30.24,30.20,10,10,2,10,3,,0.01,4,,3
2012-9-15,75,65,57,54,48,45,68,52,38,30.29,30.22,30.14,10,10,10,18,9,24,0.00,1,,62
2012-9-16,77,70,62,57,54,50,73,62,50,30.13,30.07,30.01,10,10,10,7,2,,0.00,8,,125
2012-9-17,71,68,64,63,59,55,83,75,68,30.01,29.87,29.74,10,9,3,10,3,,1.27,7,,175
2012-9-18,69,58,46,61,45,36,83,56,33,30.09,29.89,29.72,10,10,4,17,9,24,0.00,3,,324
2012-9-19,73,57,41,41,38,34,76,51,29,30.19,30.11,30.05,10,10,10,10,2,16,0.00,0,,191
2012-9-20,80,64,48,54,47,37,77,54,37,30.06,30.00,29.93,10,10,5,18,8,28,0.00,2,,208
2012-9-21,80,65,50,57,52,43,77,62,45,30.01,29.90,29.77,10,9,0,20,5,30,0.00,3,,207
2012-9-22,78,64,51,54,44,28,72,50,24,30.19,30.02,29.83,10,10,10,18,9,26,0.00,0,,297
2012-9-23,66,52,37,39,35,28,75,56,35,30.29,30.25,30.19,10,10,10,10,2,,0.00,0,,314
2012-9-24,71,54,37,43,36,28,76,51,27,30.30,30.18,30.04,10,10,7,12,2,17,0.00,1,,175
2012-9-25,82,68,53,63,52,39,67,58,50,30.06,29.99,29.92,10,10,8,18,7,23,0.00,3,Thunderstorm,166
2012-9-26,82,73,62,64,59,55,77,63,54,30.10,30.04,30.00,10,10,9,21,7,28,0.56,4,Thunderstorm,198
2012-9-27,77,68,60,63,59,54,78,71,61,30.15,30.11,30.07,10,10,3,9,4,,0.56,5,,285
2012-9-28,73,66,59,59,54,46,78,67,47,30.14,30.08,30.04,10,9,5,12,3,,0.08,4,,333
2012-9-29,73,60,48,54,47,39,77,64,43,30.09,30.03,29.97,10,10,5,12,2,16,0.00,0,,346
2012-9-30,75,62,48,52,47,39,82,61,41,29.98,29.89,29.82,10,8,0,9,3,,0.00,0,,320